AirNav   Phillips 66 Aviation Fuel
 
 974 users online  

AL97 Williamson Farm Airport
Loxley, Alabama, USA

GOING TO LOXLEY?


FAA INFORMATION EFFECTIVE 23 MAY 2019

Location

FAA Identifier: AL97
Lat/Long: 30-38-42.4300N / 087-40-14.0300W
30-38.707167N / 087-40.233833W
30.6451194 / -87.6705639
(estimated)
Elevation: 162 ft. / 49 m (estimated)
Variation: 01E (1990)
From city: 5 miles NE of LOXLEY, AL
Time zone: UTC -5 (UTC -6 during Standard Time)
Zip code: 36551

Airport Operations

Airport use: Private use. Permission required prior to landing
Activation date: 08/1992
Control tower: no
ARTCC: JACKSONVILLE CENTER
FSS: ANNISTON FLIGHT SERVICE STATION
Attendance: UNATNDD
Wind indicator: yes
Segmented circle: no

Airport Communications

WX AWOS-3PT at CQF (15 nm SW): 118.425 (251-928-3242)

Nearby radio navigation aids

VOR radial/distance  VOR name  Freq  Var
BFMr080/20.0BROOKLEY VORTAC112.8004E
NUNr300/(20.2)SAUFLEY VOR108.8001E
SJIr093/35.9SEMMES VORTAC115.3005E

 
NDB name  Hdg/Dist  Freq  Var  ID
PICKENS298/28.332602WPKZ .--. -.- --..
WISLE103/33.424801WMOB -- --- -...

Airport Services

Runway Information

Runway 18/36

Dimensions: 2000 x 100 ft. / 610 x 30 m
Surface: turf
RUNWAY 18  RUNWAY 36
Traffic pattern: leftleft
Obstructions: none30 ft. pline, 600 ft. from runway

Airport Ownership and Management from official FAA records

Ownership: Privately-owned
Owner: S. R. WILLIAMSON
20687 COUNTY ROAD 68
ROBERTSDALE, AL 36567
Phone 251-960-5274
Manager: S. R. WILLIAMSON
20687 COUNTY ROAD 68
ROBERTSDALE, AL 36567
Phone 251-960-5274
AMGR PHONE 251-960-5274

Airport Operational Statistics

Aircraft based on the field: 1
Single engine airplanes: 1
    

Instrument Procedures

There are no published instrument procedures at AL97.

Some nearby airports with instrument procedures:

5R4 - Foley Municipal Airport (13 nm S)
KCQF - H L Sonny Callahan Airport (15 nm SW)
1R8 - Bay Minette Municipal Airport (16 nm NW)
KBFM - Mobile Downtown Airport (21 nm W)
KJKA - Jack Edwards National Airport (21 nm S)
 
Loc | Ops | Rwys | IFR | FBO | Links
Com | Nav | Svcs | Stats | Notes

Continental Motors
AirBoss

 
Area around AL97 (Williamson Farm Airport)
 
Road maps at: MapQuest Bing Google
 
Aerial photo
No photo
 
Sectional chart

 
Airport distance calculator
Flying to Williamson Farm Airport? Find the distance to fly.

From to AL97

Sunrise and sunset
Times for 16-Jun-2019
 Local
(UTC-5)
 Zulu
(UTC)
Morning civil twilight05:2110:21
Sunrise05:4910:49
Sunset19:5400:54
Evening civil twilight20:2201:22

Current date and time
Zulu (UTC)  16-Jun-2019 19:49:33
Local (UTC-5)  16-Jun-2019 14:49:33
 
METAR
KCQF 
15nm SW 
161935Z AUTO 16010KT 10SM SCT026 BKN033 OVC065 29/22 A2999 RMK AO2
KBFM 
21nm W 
161853Z 16009KT 10SM FEW024 SCT046 SCT060 32/24 A3000 RMK AO2 LTG DSNT NE AND SE SLP157 CB DSNT NE AND SE T03170244
KJKA 
21nm S 
161935Z AUTO 18009G15KT 10SM BKN026 30/24 A2999 RMK AO2 LTG DSNT N T03030236
KNPA 
25nm SE 
161856Z 15013KT 10SM FEW026 SCT039 BKN250 31/24 A3000 RMK AO2 SLP159 T2 SET T03110244 $
KPNS 
27nm E 
161854Z 17013KT 10SM CLR 30/23 A3000 RMK AO2 T03000233
KMOB 
30nm W 
161856Z 18010KT 10SM SCT045 SCT090 32/23 A2999 RMK AO2 LTG DSNT NE SLP153 CB DSNT NE AND SE T03220228
TAF
KBFM 
21nm W 
161736Z 1618/1718 17005KT P6SM VCTS BKN030CB BKN120 FM170000 16004KT P6SM FEW050 SCT120 BKN250 FM170900 13002KT 6SM BR OVC050 FM171300 13005KT P6SM BKN050
KNPA 
25nm SE 
1617/1715 16008KT 9999 VCTS SCT030CB SCT250 QNH2998INS FM170100 19009KT 9999 SCT040 BKN250 QNH2992INS BECMG 1703/1704 VRB05KT 9999 FEW015 SCT030 SCT250 QNH2995INS AUTOMATED SENSOR METWATCH 1617 TIL 1617 T32/1620Z T24/1711Z AMD 1744 FN00178
NOTAMs
Click for the latest NOTAMs
NOTAMs are issued by the DoD/FAA and will open in a separate window not controlled by AirNav.

 

 
 

Would you like to see your business listed on this page?

 If your business provides an interesting product or service to pilots, flight crews, aircraft, or users of the Williamson Farm Airport, you should consider listing it here.  To start the listing process, click on the button below
 
Add a business
 

Other Pages about Williamson Farm Airport

Update a link
 
Copyright © AirNav, LLC. All rights reserved. Privacy Policy  Contact